Time;durP1;ratioP1;P1;durP2;ratioP2;P2;SDS_P1;SDS_P2;PMS_P1;PMS_P2;Temp;Humidity;BMP_temperature;BMP_pressure;BME280_temperature;BME280_humidity;BME280_pressure;Samples;Min_cycle;Max_cycle;Signal;HPM_P1;HPM_P2
2021/07/22 00:01:17;;;;;;;10.73;7.45;;;22.00;80.90;;;;;;5033105;28;20291;-72
2021/07/22 00:04:01;;;;;;;10.57;7.37;;;22.00;81.00;;;;;;5032689;28;20068;-73
2021/07/22 00:06:45;;;;;;;9.48;6.18;;;22.00;80.90;;;;;;5031170;28;20032;-74
2021/07/22 00:09:29;;;;;;;11.15;7.05;;;22.00;81.00;;;;;;5034136;28;20087;-73
2021/07/22 00:12:13;;;;;;;11.30;6.53;;;21.90;81.00;;;;;;5031125;28;20488;-73
2021/07/22 00:14:58;;;;;;;9.70;6.68;;;22.00;81.10;;;;;;5034114;28;20052;-73
2021/07/22 00:17:42;;;;;;;10.40;6.80;;;21.90;81.10;;;;;;5032317;28;20160;-73
2021/07/22 00:20:25;;;;;;;10.83;7.27;;;21.90;81.10;;;;;;5033970;28;20068;-73
2021/07/22 00:23:11;;;;;;;11.77;6.32;;;21.90;81.20;;;;;;5032243;28;20044;-74
2021/07/22 00:25:55;;;;;;;9.70;6.70;;;21.90;81.40;;;;;;5033711;28;20096;-73
2021/07/22 00:28:39;;;;;;;11.50;7.15;;;21.90;81.60;;;;;;5032388;28;20170;-73
2021/07/22 00:31:24;;;;;;;11.27;7.38;;;21.90;81.70;;;;;;5033517;28;20091;-73
2021/07/22 00:34:08;;;;;;;9.90;7.07;;;21.90;81.80;;;;;;5031672;28;20045;-73
2021/07/22 00:36:52;;;;;;;10.00;6.55;;;21.90;81.60;;;;;;5031097;28;20048;-75
2021/07/22 00:39:37;;;;;;;9.97;7.17;;;21.80;81.60;;;;;;5013756;28;20442;-75
2021/07/22 00:42:20;;;;;;;10.63;6.93;;;21.80;81.70;;;;;;5015911;28;20368;-75
2021/07/22 00:45:05;;;;;;;13.32;6.57;;;21.80;81.80;;;;;;5033603;28;20452;-75
2021/07/22 00:47:49;;;;;;;;;;;21.80;81.90;;;;;;5032342;28;20080;-74
2021/07/22 00:50:33;;;;;;;10.00;6.63;;;21.80;81.40;;;;;;5033417;28;19919;-74
2021/07/22 00:53:17;;;;;;;10.68;7.38;;;21.70;81.80;;;;;;5032293;28;20063;-75
2021/07/22 00:56:02;;;;;;;10.50;7.28;;;21.70;81.90;;;;;;5033606;28;20043;-75
2021/07/22 00:58:46;;;;;;;10.75;7.43;;;21.70;81.90;;;;;;5031862;28;20502;-75
2021/07/22 01:01:31;;;;;;;11.47;6.43;;;21.70;82.00;;;;;;5032733;28;20036;-75
2021/07/22 01:04:15;;;;;;;10.07;6.20;;;21.70;82.00;;;;;;5031620;28;20380;-75
2021/07/22 01:06:59;;;;;;;9.88;7.10;;;21.70;82.00;;;;;;5031606;28;20040;-76
2021/07/22 01:09:43;;;;;;;10.93;6.75;;;21.70;82.00;;;;;;5013151;28;20550;-75
2021/07/22 01:12:27;;;;;;;10.02;6.95;;;21.70;82.10;;;;;;5016627;28;20059;-76
2021/07/22 01:15:11;;;;;;;10.10;6.37;;;21.70;82.20;;;;;;5033160;28;20040;-75
2021/07/22 01:17:55;;;;;;;9.25;6.53;;;21.70;82.30;;;;;;5030956;28;20067;-75
2021/07/22 01:20:39;;;;;;;11.80;7.27;;;21.60;82.30;;;;;;5032595;28;20107;-75
2021/07/22 01:23:23;;;;;;;11.88;7.82;;;21.60;82.50;;;;;;5031387;28;20068;-75
2021/07/22 01:26:07;;;;;;;10.37;6.90;;;21.60;82.50;;;;;;5032723;28;20400;-75
2021/07/22 01:28:51;;;;;;;11.50;7.22;;;21.60;82.60;;;;;;5031003;28;20036;-75
2021/07/22 01:31:35;;;;;;;11.55;7.20;;;21.60;82.60;;;;;;5031327;28;20099;-75
2021/07/22 01:34:19;;;;;;;9.43;7.28;;;21.50;82.70;;;;;;5029498;28;20068;-74
2021/07/22 01:37:03;;;;;;;12.10;7.20;;;21.60;82.80;;;;;;5030868;28;20095;-75
2021/07/22 01:39:47;;;;;;;10.60;7.07;;;21.60;82.80;;;;;;5031349;28;20044;-75
2021/07/22 01:42:31;;;;;;;10.43;7.07;;;21.60;82.80;;;;;;5030825;28;20039;-74
2021/07/22 01:45:17;;;;;;;11.60;7.13;;;21.60;82.90;;;;;;5032386;28;20108;-74
2021/07/22 01:48:03;;;;;;;11.85;7.38;;;21.50;82.90;;;;;;5021103;28;20041;-74
2021/07/22 01:50:49;;;;;;;11.00;7.57;;;21.50;82.90;;;;;;5030080;28;20547;-74
2021/07/22 01:53:37;;;;;;;13.68;7.78;;;21.50;83.20;;;;;;5031598;28;20037;-76
2021/07/22 01:56:23;;;;;;;10.55;7.30;;;21.50;83.20;;;;;;5028881;28;20026;-75
2021/07/22 01:59:10;;;;;;;11.57;7.40;;;21.50;83.20;;;;;;5031298;28;20049;-75
2021/07/22 02:01:55;;;;;;;11.05;7.00;;;21.50;83.30;;;;;;5029591;28;20121;-75
2021/07/22 02:04:42;;;;;;;11.32;7.10;;;21.50;83.60;;;;;;5031111;28;20424;-75
2021/07/22 02:07:28;;;;;;;10.60;7.75;;;21.40;83.70;;;;;;5030980;28;20026;-75
2021/07/22 02:10:14;;;;;;;9.70;7.10;;;21.50;83.80;;;;;;5031547;28;20762;-75
2021/07/22 02:13:00;;;;;;;10.02;6.85;;;21.40;83.90;;;;;;5011815;28;20405;-76
2021/07/22 02:15:45;;;;;;;9.38;6.63;;;21.40;84.20;;;;;;5032913;28;20025;-75
2021/07/22 02:18:31;;;;;;;11.40;7.20;;;21.30;84.20;;;;;;5031176;28;20052;-75
2021/07/22 02:21:18;;;;;;;10.10;6.97;;;21.30;84.20;;;;;;5029090;28;20038;-75
2021/07/22 02:24:05;;;;;;;9.73;6.22;;;21.30;84.40;;;;;;5016787;28;20105;-74
2021/07/22 02:26:50;;;;;;;10.55;6.15;;;21.30;84.50;;;;;;5030169;28;20075;-75
2021/07/22 02:29:36;;;;;;;8.32;6.25;;;21.30;84.60;;;;;;5031489;28;20429;-75
2021/07/22 02:32:22;;;;;;;9.98;6.97;;;21.20;84.70;;;;;;5029072;28;20029;-74
2021/07/22 02:35:08;;;;;;;11.18;7.28;;;21.20;84.80;;;;;;5030529;28;20046;-74
2021/07/22 02:37:54;;;;;;;9.00;7.00;;;21.30;84.90;;;;;;5011601;28;20022;-75
2021/07/22 02:40:40;;;;;;;8.63;6.53;;;21.20;84.80;;;;;;5017311;28;20482;-74
2021/07/22 02:43:26;;;;;;;9.65;6.65;;;21.30;84.90;;;;;;5030867;28;20057;-75
2021/07/22 02:46:12;;;;;;;11.30;6.78;;;21.30;85.10;;;;;;5029749;28;20111;-74
2021/07/22 02:48:59;;;;;;;8.90;6.40;;;21.20;85.20;;;;;;5031094;28;20095;-74
2021/07/22 02:51:45;;;;;;;11.65;7.22;;;21.20;85.30;;;;;;5028805;28;20025;-74
2021/07/22 02:54:31;;;;;;;10.60;6.68;;;21.20;85.40;;;;;;5030615;28;20037;-73
2021/07/22 02:57:17;;;;;;;9.63;6.63;;;21.20;85.50;;;;;;5029259;28;20025;-73
2021/07/22 03:00:03;;;;;;;9.05;7.13;;;21.20;85.70;;;;;;5030715;28;20041;-74
2021/07/22 03:02:49;;;;;;;10.65;6.38;;;21.20;85.80;;;;;;4996769;28;20030;-73
2021/07/22 03:05:35;;;;;;;9.00;6.15;;;21.20;86.00;;;;;;5014836;28;20113;-72
2021/07/22 03:08:21;;;;;;;10.55;6.80;;;21.20;86.10;;;;;;5016860;28;20033;-73
2021/07/22 03:11:10;;;;;;;12.57;6.85;;;21.20;86.40;;;;;;5028999;28;20026;-73
2021/07/22 03:13:58;;;;;;;9.27;6.50;;;21.10;86.50;;;;;;5030519;28;20083;-73
2021/07/22 03:16:44;;;;;;;8.93;6.20;;;21.20;86.60;;;;;;5028928;28;20037;-75
2021/07/22 03:19:30;;;;;;;9.32;5.88;;;21.20;86.70;;;;;;5031005;28;20477;-73
2021/07/22 03:22:15;;;;;;;8.48;6.25;;;21.20;86.80;;;;;;5030084;28;20038;-75
2021/07/22 03:25:01;;;;;;;8.15;6.13;;;21.20;86.90;;;;;;5030576;28;20026;-74
2021/07/22 03:27:47;;;;;;;8.63;6.35;;;21.20;87.00;;;;;;5030528;28;20029;-74
2021/07/22 03:30:33;;;;;;;10.27;6.90;;;21.20;87.10;;;;;;5030892;28;20103;-74
2021/07/22 03:33:19;;;;;;;9.35;6.45;;;21.20;87.20;;;;;;5034338;28;20103;-73
2021/07/22 03:36:05;;;;;;;8.45;5.95;;;21.10;87.20;;;;;;5025623;28;20029;-74
2021/07/22 03:38:31;;;;;;;9.15;6.30;;;21.10;87.30;;;;;;5015074;28;20484;-73
2021/07/22 03:41:16;;;;;;;9.38;6.03;;;21.10;87.40;;;;;;5014743;28;20045;-72
2021/07/22 03:44:00;;;;;;;7.57;5.90;;;21.20;87.50;;;;;;5014664;28;20036;-75
2021/07/22 03:46:44;;;;;;;9.63;6.72;;;21.20;87.60;;;;;;5024409;28;20096;-74
2021/07/22 03:49:28;;;;;;;8.05;6.03;;;21.10;87.60;;;;;;5014502;28;20120;-74
2021/07/22 03:52:13;;;;;;;11.13;6.03;;;21.10;87.80;;;;;;5030576;28;20045;-73
2021/07/22 03:54:57;;;;;;;10.50;6.50;;;21.20;88.00;;;;;;5034561;28;20121;-74
2021/07/22 03:57:41;;;;;;;10.10;5.87;;;21.10;88.20;;;;;;5014622;28;20136;-74
2021/07/22 04:00:26;;;;;;;8.73;5.40;;;21.20;88.20;;;;;;5015878;28;20285;-74
2021/07/22 04:03:10;;;;;;;8.43;6.03;;;21.20;88.30;;;;;;5034361;28;20176;-74
2021/07/22 04:05:55;;;;;;;8.20;6.20;;;21.20;88.30;;;;;;5032845;28;20041;-74
2021/07/22 04:08:39;;;;;;;;;;;21.20;88.20;;;;;;5019870;28;20118;-74
2021/07/22 04:11:23;;;;;;;10.75;6.47;;;21.20;87.60;;;;;;5032898;28;19916;-74
2021/07/22 04:14:07;;;;;;;8.65;6.18;;;21.20;88.20;;;;;;5033950;28;20555;-74
2021/07/22 04:16:51;;;;;;;10.37;6.47;;;21.20;88.30;;;;;;5031577;28;20048;-74
2021/07/22 04:19:35;;;;;;;11.52;6.43;;;21.20;88.40;;;;;;5034399;28;20544;-73
2021/07/22 04:22:19;;;;;;;9.30;6.95;;;21.30;88.60;;;;;;5032229;28;20036;-74
2021/07/22 04:25:04;;;;;;;14.00;6.90;;;21.30;88.70;;;;;;5033614;28;20116;-74
2021/07/22 04:27:48;;;;;;;9.65;7.13;;;21.30;88.70;;;;;;5014117;28;20581;-74
2021/07/22 04:30:32;;;;;;;12.77;7.38;;;21.30;88.70;;;;;;5021113;28;20072;-74
2021/07/22 04:33:17;;;;;;;9.60;6.88;;;21.40;88.90;;;;;;5024156;28;20519;-74
2021/07/22 04:36:01;;;;;;;10.82;7.55;;;21.40;89.20;;;;;;5025957;28;20556;-74
2021/07/22 04:38:45;;;;;;;9.82;7.30;;;21.50;89.40;;;;;;5013879;28;20037;-74
2021/07/22 04:41:29;;;;;;;10.77;7.90;;;21.40;89.50;;;;;;5022695;28;20114;-74
2021/07/22 04:44:13;;;;;;;;;;;21.40;89.80;;;;;;5033992;28;20075;-75
2021/07/22 04:46:59;;;;;;;11.30;7.95;;;21.50;89.20;;;;;;5031863;28;19968;-73
2021/07/22 04:49:43;;;;;;;11.38;8.25;;;21.40;89.70;;;;;;5033084;28;20108;-73
2021/07/22 04:52:27;;;;;;;13.38;8.05;;;21.50;89.70;;;;;;5032395;28;20039;-73
2021/07/22 04:55:11;;;;;;;10.15;7.47;;;21.50;89.70;;;;;;5032749;28;20131;-73
2021/07/22 04:58:02;;;;;;;10.52;7.82;;;21.50;89.10;;;;;;5013552;28;20045;-73
2021/07/22 05:00:47;;;;;;;11.68;7.50;;;21.50;89.50;;;;;;5017756;28;20099;-72
2021/07/22 05:03:31;;;;;;;10.40;7.03;;;21.60;89.00;;;;;;5033086;28;20556;-71
2021/07/22 05:06:15;;;;;;;9.25;6.75;;;21.60;89.50;;;;;;5031633;28;20084;-76
2021/07/22 05:09:00;;;;;;;11.90;7.60;;;21.60;89.70;;;;;;5033254;28;20041;-77
2021/07/22 05:11:44;;;;;;;12.57;7.60;;;21.70;88.90;;;;;;5031840;28;20497;-72
2021/07/22 05:14:28;;;;;;;11.38;6.95;;;21.70;88.60;;;;;;5017349;28;20040;-74
2021/07/22 05:17:12;;;;;;;11.98;7.95;;;21.70;88.50;;;;;;5030430;28;20117;-73
2021/07/22 05:19:56;;;;;;;11.00;7.32;;;21.80;88.90;;;;;;5030706;28;20131;-73
2021/07/22 05:22:40;;;;;;;11.23;7.32;;;21.80;88.00;;;;;;5012337;28;20099;-74
2021/07/22 05:25:24;;;;;;;9.27;6.82;;;21.80;88.40;;;;;;5015656;28;20043;-75
2021/07/22 05:28:08;;;;;;;11.25;8.07;;;21.80;88.50;;;;;;5032693;28;20049;-75
2021/07/22 05:30:52;;;;;;;10.80;7.10;;;21.80;88.50;;;;;;5029679;28;20175;-75
2021/07/22 05:33:38;;;;;;;12.13;7.35;;;21.90;87.70;;;;;;5024138;28;20052;-75
2021/07/22 05:36:22;;;;;;;14.38;7.15;;;21.90;87.10;;;;;;5022232;28;20508;-74
2021/07/22 05:38:48;;;;;;;13.85;8.43;;;21.90;87.20;;;;;;5024747;28;20033;-75
2021/07/22 05:41:32;;;;;;;10.27;6.50;;;21.90;87.20;;;;;;5012503;28;20096;-73
2021/07/22 05:44:18;;;;;;;11.82;8.43;;;21.90;88.00;;;;;;5012242;28;20485;-73
2021/07/22 05:47:05;;;;;;;9.85;7.10;;;22.00;87.70;;;;;;5027440;28;20033;-72
2021/07/22 05:49:51;;;;;;;11.18;7.03;;;22.00;87.40;;;;;;5030308;28;20052;-73
2021/07/22 05:52:37;;;;;;;10.43;7.43;;;22.10;86.40;;;;;;5011286;28;20029;-79
2021/07/22 05:55:22;;;;;;;9.60;6.68;;;22.00;86.10;;;;;;5013935;28;20465;-74
2021/07/22 05:58:09;;;;;;;10.93;6.68;;;22.10;86.30;;;;;;5021091;28;20034;-73
2021/07/22 06:00:54;;;;;;;10.63;6.97;;;22.10;86.30;;;;;;5012029;28;20026;-74
2021/07/22 06:03:40;;;;;;;9.55;6.50;;;22.20;86.10;;;;;;5029233;28;20029;-74
2021/07/22 06:06:26;;;;;;;13.25;7.50;;;22.20;85.40;;;;;;5030268;28;20033;-74
2021/07/22 06:09:12;;;;;;;12.45;7.20;;;22.30;85.10;;;;;;5032648;28;20444;-74
2021/07/22 06:11:57;;;;;;;12.80;7.38;;;22.20;85.00;;;;;;5030491;28;20033;-74
2021/07/22 06:14:43;;;;;;;9.07;6.75;;;22.30;86.10;;;;;;5022764;28;20042;-73
2021/07/22 06:17:29;;;;;;;10.40;6.38;;;22.40;86.00;;;;;;5030654;28;20104;-73
2021/07/22 06:20:15;;;;;;;11.13;7.30;;;22.50;85.90;;;;;;5029513;28;20034;-72
2021/07/22 06:23:01;;;;;;;9.43;6.38;;;22.60;86.40;;;;;;5023728;28;20559;-72
2021/07/22 06:25:47;;;;;;;8.73;6.30;;;22.70;86.20;;;;;;5021804;28;20553;-73
2021/07/22 06:28:33;;;;;;;13.68;7.57;;;22.80;86.00;;;;;;5022528;28;20480;-73
2021/07/22 06:31:18;;;;;;;10.73;6.97;;;22.90;85.50;;;;;;5019257;28;20109;-72
2021/07/22 06:34:04;;;;;;;9.45;7.22;;;23.00;84.80;;;;;;5028168;28;20033;-72
2021/07/22 06:36:50;;;;;;;10.00;7.53;;;23.00;83.60;;;;;;5027268;28;20499;-72
2021/07/22 06:39:36;;;;;;;9.30;6.53;;;23.10;83.50;;;;;;5022605;28;20030;-73
2021/07/22 06:42:21;;;;;;;9.20;6.88;;;23.20;84.40;;;;;;5025080;28;20028;-73
2021/07/22 06:45:08;;;;;;;13.25;7.75;;;23.30;83.00;;;;;;5020783;28;20018;-73
2021/07/22 06:47:54;;;;;;;10.90;6.97;;;23.30;83.50;;;;;;5029940;28;20033;-73
2021/07/22 06:50:40;;;;;;;12.27;6.63;;;23.40;83.00;;;;;;5021980;28;20064;-73
2021/07/22 06:53:26;;;;;;;10.30;6.63;;;23.50;83.00;;;;;;5020611;28;20515;-73
2021/07/22 06:56:12;;;;;;;11.05;6.80;;;23.70;83.60;;;;;;5027915;28;20034;-73
2021/07/22 06:58:57;;;;;;;11.07;7.20;;;23.80;83.40;;;;;;5011531;28;20021;-73
2021/07/22 07:01:43;;;;;;;11.55;6.53;;;23.90;83.60;;;;;;5028928;28;20022;-73
2021/07/22 07:04:29;;;;;;;11.95;6.80;;;24.00;83.40;;;;;;5028052;28;20527;-73
2021/07/22 07:07:16;;;;;;;11.90;7.75;;;24.10;83.00;;;;;;5024914;28;20053;-72
2021/07/22 07:10:02;;;;;;;11.05;7.50;;;24.20;80.60;;;;;;5028347;28;20029;-73
2021/07/22 07:12:47;;;;;;;9.10;6.63;;;24.10;82.00;;;;;;5024572;28;20021;-73
2021/07/22 07:15:33;;;;;;;8.18;6.50;;;24.20;82.20;;;;;;5015904;28;20135;-72
2021/07/22 07:18:19;;;;;;;8.50;6.53;;;24.20;82.40;;;;;;5030743;28;20036;-74
2021/07/22 07:21:06;;;;;;;8.90;6.20;;;24.40;82.20;;;;;;5026717;28;20022;-79
2021/07/22 07:23:52;;;;;;;10.70;6.93;;;24.40;82.00;;;;;;5026742;28;20562;-77
2021/07/22 07:26:38;;;;;;;7.32;6.40;;;24.50;81.70;;;;;;5029762;28;20092;-76
2021/07/22 07:29:24;;;;;;;10.32;6.68;;;24.50;82.10;;;;;;5030386;28;20031;-76
2021/07/22 07:32:10;;;;;;;11.40;6.90;;;24.60;81.40;;;;;;5018351;28;20132;-77
2021/07/22 07:34:56;;;;;;;12.60;6.82;;;24.70;81.80;;;;;;5034247;28;20116;-78
2021/07/22 07:37:42;;;;;;;8.10;5.82;;;24.70;80.50;;;;;;5029935;28;20048;-79
2021/07/22 07:40:26;;;;;;;7.75;5.97;;;24.80;79.50;;;;;;5036038;28;20093;-81
2021/07/22 07:43:17;;;;;;;9.18;6.18;;;24.80;79.90;;;;;;5015826;28;20593;-75
2021/07/22 07:46:00;;;;;;;11.25;6.38;;;24.90;80.40;;;;;;5030120;28;20432;-76
2021/07/22 07:48:44;;;;;;;9.65;6.60;;;24.90;80.20;;;;;;5034637;28;20099;-76
2021/07/22 07:51:29;;;;;;;9.13;5.78;;;25.00;79.80;;;;;;5023174;28;20037;-69
2021/07/22 07:54:18;;;;;;;;;;;25.00;79.80;;;;;;5025619;28;20933;-69
2021/07/22 07:57:02;;;;;;;9.10;6.20;;;25.10;80.10;;;;;;5024875;28;20001;-69
2021/07/22 07:59:47;;;;;;;9.27;6.10;;;25.10;79.70;;;;;;5032623;28;20040;-71
2021/07/22 08:02:31;;;;;;;9.80;6.55;;;25.20;79.60;;;;;;5033900;28;20512;-69
2021/07/22 08:05:15;;;;;;;8.70;6.68;;;25.20;78.90;;;;;;5032521;28;20504;-69
2021/07/22 08:07:59;;;;;;;11.48;6.07;;;25.30;78.80;;;;;;5034045;28;20087;-70
2021/07/22 08:10:43;;;;;;;11.82;6.05;;;25.30;79.00;;;;;;5031068;28;20083;-70
2021/07/22 08:13:28;;;;;;;14.85;7.05;;;25.30;78.50;;;;;;5021506;28;20084;-69
2021/07/22 08:16:18;;;;;;;8.88;6.22;;;25.40;78.70;;;;;;5030527;28;20036;-70
2021/07/22 08:19:02;;;;;;;8.95;6.47;;;25.40;78.10;;;;;;5033621;28;20052;-69
2021/07/22 08:21:47;;;;;;;10.27;5.75;;;25.40;76.90;;;;;;5031997;28;20402;-69
2021/07/22 08:24:30;;;;;;;8.98;5.78;;;25.40;77.50;;;;;;5033659;28;20039;-69
2021/07/22 08:27:23;;;;;;;9.15;6.38;;;25.40;77.50;;;;;;5031571;28;20091;-69
2021/07/22 08:30:07;;;;;;;9.52;6.05;;;25.40;75.90;;;;;;5032515;28;20125;-69
2021/07/22 08:32:51;;;;;;;;;;;25.50;76.60;;;;;;5014236;28;20418;-69
2021/07/22 08:35:35;;;;;;;8.55;6.45;;;25.50;76.70;;;;;;5016368;28;19920;-69
2021/07/22 08:38:19;;;;;;;8.20;6.20;;;25.50;74.30;;;;;;5032550;28;20091;-70
2021/07/22 08:41:05;;;;;;;6.93;5.40;;;25.50;74.40;;;;;;5031665;28;20121;-70
2021/07/22 08:43:51;;;;;;;6.78;5.18;;;25.60;74.30;;;;;;5033218;28;20207;-69
2021/07/22 08:46:39;;;;;;;7.53;5.78;;;25.60;74.80;;;;;;5031574;28;20409;-69
2021/07/22 08:49:23;;;;;;;8.27;6.13;;;25.60;73.30;;;;;;5018533;28;20099;-70
2021/07/22 08:52:11;;;;;;;7.60;6.07;;;25.60;73.70;;;;;;5011648;28;20041;-69
2021/07/22 08:54:55;;;;;;;7.65;5.30;;;25.60;72.90;;;;;;5013020;28;20045;-69
2021/07/22 08:57:40;;;;;;;11.13;6.70;;;25.70;73.30;;;;;;5013135;28;20089;-70
2021/07/22 09:00:28;;;;;;;6.60;5.15;;;25.80;74.00;;;;;;5011222;28;20044;-69
2021/07/22 09:03:13;;;;;;;7.30;5.28;;;25.90;73.00;;;;;;5013488;28;20076;-69
2021/07/22 09:05:57;;;;;;;8.50;5.65;;;26.00;71.80;;;;;;5011267;28;20037;-69
2021/07/22 09:08:41;;;;;;;7.18;5.47;;;26.00;72.30;;;;;;5010727;28;20048;-69
2021/07/22 09:11:26;;;;;;;8.20;5.18;;;26.00;71.60;;;;;;5010297;28;20133;-69
2021/07/22 09:14:10;;;;;;;7.38;5.18;;;26.00;70.70;;;;;;5013037;28;20100;-69
2021/07/22 09:16:55;;;;;;;8.07;5.38;;;26.00;70.80;;;;;;5011645;28;20101;-68
2021/07/22 09:19:40;;;;;;;9.88;5.95;;;26.00;70.30;;;;;;5012914;28;20036;-69
2021/07/22 09:22:42;;;;;;;7.75;5.25;;;26.00;71.00;;;;;;5011186;28;20032;-69
2021/07/22 09:25:44;;;;;;;7.15;5.43;;;26.10;71.50;;;;;;5010735;28;20517;-69
2021/07/22 09:28:28;;;;;;;7.15;5.55;;;26.20;70.20;;;;;;5009645;28;20564;-69
2021/07/22 09:31:13;;;;;;;7.78;5.43;;;26.30;70.70;;;;;;5010987;28;20504;-69
2021/07/22 09:33:57;;;;;;;7.95;4.93;;;26.30;69.70;;;;;;5011274;28;20048;-69
2021/07/22 09:36:41;;;;;;;7.72;5.40;;;26.40;69.30;;;;;;5010905;28;20492;-69
2021/07/22 09:39:29;;;;;;;6.43;5.40;;;26.50;69.40;;;;;;5008119;28;20041;-69
2021/07/22 09:42:14;;;;;;;7.25;5.30;;;26.60;68.40;;;;;;5010395;28;20040;-69
2021/07/22 09:45:19;;;;;;;6.50;4.75;;;26.60;68.30;;;;;;5011968;28;20033;-69
2021/07/22 09:48:10;;;;;;;6.88;4.80;;;26.60;66.60;;;;;;4995828;28;20038;-69
2021/07/22 09:50:56;;;;;;;7.68;4.78;;;26.70;67.10;;;;;;5018225;28;20041;-69
2021/07/22 09:53:42;;;;;;;7.57;5.35;;;26.70;67.70;;;;;;5030870;28;20045;-69
2021/07/22 09:56:38;;;;;;;6.40;5.47;;;26.70;65.30;;;;;;5029623;28;20029;-70
2021/07/22 09:59:24;;;;;;;8.52;4.93;;;26.70;65.80;;;;;;5030730;28;20123;-70
2021/07/22 10:02:21;;;;;;;7.63;5.65;;;26.80;65.60;;;;;;5030601;28;20547;-70
2021/07/22 10:05:09;;;;;;;5.97;4.88;;;26.90;64.20;;;;;;5026913;28;20040;-70
2021/07/22 10:07:56;;;;;;;9.10;5.53;;;26.90;64.80;;;;;;5012466;28;20022;-70
2021/07/22 10:10:51;;;;;;;13.02;6.35;;;27.00;63.10;;;;;;5015496;28;20497;-70
2021/07/22 10:13:42;;;;;;;8.73;6.35;;;27.00;63.20;;;;;;5030396;28;20041;-70
2021/07/22 10:16:29;;;;;;;8.32;5.75;;;27.00;64.50;;;;;;5016384;28;20404;-71
2021/07/22 10:19:16;;;;;;;7.47;5.00;;;27.10;63.90;;;;;;5031329;28;20478;-69
2021/07/22 10:22:04;;;;;;;7.75;5.50;;;27.00;63.90;;;;;;5028776;28;20032;-69
2021/07/22 10:24:51;;;;;;;6.05;4.45;;;27.00;63.00;;;;;;5031976;28;20017;-69
2021/07/22 10:27:37;;;;;;;7.07;5.45;;;27.00;63.60;;;;;;5012240;28;20417;-69
2021/07/22 10:30:24;;;;;;;8.40;5.28;;;26.90;62.10;;;;;;5012473;28;20087;-69
2021/07/22 10:33:11;;;;;;;7.65;5.60;;;26.80;62.50;;;;;;5028173;28;20033;-69
2021/07/22 10:35:57;;;;;;;8.13;5.38;;;26.80;62.30;;;;;;5030234;28;20025;-69
2021/07/22 10:38:47;;;;;;;7.75;6.38;;;26.50;62.30;;;;;;5027946;28;20037;-69
2021/07/22 10:41:36;;;;;;;11.43;5.97;;;26.40;63.60;;;;;;5010116;28;20512;-69
2021/07/22 10:44:21;;;;;;;7.05;5.88;;;26.30;63.80;;;;;;4997202;28;20118;-69
2021/07/22 10:47:07;;;;;;;12.52;6.30;;;26.10;64.00;;;;;;5027333;28;20490;-69
2021/07/22 10:49:53;;;;;;;8.95;5.72;;;26.00;64.80;;;;;;5030921;28;20068;-69
2021/07/22 10:53:01;;;;;;;9.20;5.75;;;25.90;65.40;;;;;;5030936;28;20056;-69
2021/07/22 10:55:47;;;;;;;11.43;5.85;;;25.80;65.60;;;;;;5030030;28;20030;-69
2021/07/22 10:58:33;;;;;;;13.25;6.38;;;25.70;65.10;;;;;;5031481;28;20030;-70
2021/07/22 11:01:43;;;;;;;7.68;5.50;;;25.70;65.10;;;;;;5029023;28;20049;-70
2021/07/22 11:04:35;;;;;;;8.65;6.38;;;25.70;65.20;;;;;;5027260;28;20033;-70
2021/07/22 11:07:23;;;;;;;9.13;6.30;;;25.50;65.20;;;;;;5029109;28;20498;-70
2021/07/22 11:10:09;;;;;;;10.25;6.00;;;25.40;65.10;;;;;;5014217;28;20025;-70
2021/07/22 11:12:55;;;;;;;7.97;5.65;;;25.30;65.20;;;;;;5009941;28;20452;-70
2021/07/22 11:15:47;;;;;;;7.70;6.05;;;25.20;65.90;;;;;;5014933;28;20072;-70
2021/07/22 11:18:42;;;;;;;8.73;5.50;;;25.10;66.20;;;;;;5031475;28;20030;-70
2021/07/22 11:21:33;;;;;;;8.07;5.80;;;25.10;66.40;;;;;;5029114;28;20519;-70
2021/07/22 11:24:26;;;;;;;8.05;5.88;;;25.10;66.40;;;;;;5030338;28;20066;-70
2021/07/22 11:27:12;;;;;;;8.73;5.95;;;25.10;66.60;;;;;;5029297;28;20156;-70
2021/07/22 11:30:11;;;;;;;8.63;6.28;;;25.10;66.90;;;;;;5028292;28;20030;-70
2021/07/22 11:33:15;;;;;;;8.25;5.60;;;25.10;67.10;;;;;;5011728;28;20406;-70
2021/07/22 11:36:22;;;;;;;7.75;5.68;;;25.10;67.40;;;;;;5017884;28;20025;-70
2021/07/22 11:39:08;;;;;;;8.32;6.50;;;25.10;67.80;;;;;;5013899;28;20041;-70
2021/07/22 11:42:10;;;;;;;9.00;6.90;;;25.10;68.20;;;;;;5011935;28;20045;-69
2021/07/22 11:45:03;;;;;;;8.07;6.05;;;25.10;68.50;;;;;;5011307;28;20103;-70
2021/07/22 11:47:49;;;;;;;9.23;6.30;;;25.10;68.60;;;;;;5011165;28;20121;-70
2021/07/22 11:50:33;;;;;;;10.10;6.80;;;25.10;69.00;;;;;;5014321;28;20512;-70
2021/07/22 11:53:20;;;;;;;9.18;6.13;;;25.10;69.50;;;;;;5034305;28;20036;-69
2021/07/22 11:56:13;;;;;;;8.20;5.95;;;25.10;69.30;;;;;;5026654;28;20089;-69
2021/07/22 11:58:57;;;;;;;22.20;8.18;;;25.10;69.80;;;;;;5029654;28;20040;-70
2021/07/22 12:02:00;;;;;;;;;;;25.20;69.30;;;;;;5025429;28;20091;-70
2021/07/22 12:04:51;;;;;;;9.30;6.30;;;25.20;69.30;;;;;;5032143;28;19920;-69
2021/07/22 12:07:35;;;;;;;9.35;6.28;;;25.10;69.50;;;;;;5029292;28;20079;-71
2021/07/22 12:10:04;;;;;;;9.02;5.97;;;25.10;70.10;;;;;;5031938;28;20444;-71
2021/07/22 12:12:29;;;;;;;9.80;7.18;;;25.10;70.10;;;;;;5026177;28;20041;-71
2021/07/22 12:15:07;;;;;;;9.18;7.10;;;25.10;69.90;;;;;;5029564;28;20417;-70
2021/07/22 12:17:38;;;;;;;7.97;5.75;;;25.20;70.10;;;;;;5031952;28;20032;-71
2021/07/22 12:20:05;;;;;;;8.13;6.10;;;25.20;69.50;;;;;;5032127;28;20037;-71
2021/07/22 12:22:37;;;;;;;9.32;6.97;;;25.30;69.60;;;;;;5029390;28;20044;-71
2021/07/22 12:25:03;;;;;;;9.48;6.72;;;25.30;69.10;;;;;;5024969;28;20062;-71
2021/07/22 12:27:56;;;;;;;9.82;6.60;;;25.40;68.60;;;;;;5020966;28;20018;-71
2021/07/22 12:30:30;;;;;;;10.10;6.60;;;25.50;69.10;;;;;;5036914;28;22359;-73
2021/07/22 12:33:00;;;;;;;7.90;6.15;;;25.50;68.90;;;;;;5023320;28;20072;-70
2021/07/22 12:35:44;;;;;;;8.35;6.55;;;25.60;69.80;;;;;;5008814;28;20037;-70
2021/07/22 12:38:15;;;;;;;8.55;6.40;;;25.70;69.80;;;;;;5029371;28;20025;-70
2021/07/22 12:40:49;;;;;;;8.57;5.82;;;25.80;69.60;;;;;;5029358;28;20029;-70
2021/07/22 12:43:16;;;;;;;8.27;6.07;;;25.80;69.20;;;;;;5031759;28;20069;-70
2021/07/22 12:45:44;;;;;;;9.20;6.43;;;25.90;68.10;;;;;;5011490;28;20065;-70
2021/07/22 12:48:11;;;;;;;7.90;5.85;;;26.00;67.20;;;;;;5040150;28;20092;-70
2021/07/22 12:50:48;;;;;;;9.45;6.22;;;26.00;67.30;;;;;;5029893;28;20037;-70
2021/07/22 12:53:30;;;;;;;7.80;6.25;;;26.10;67.30;;;;;;5028720;28;20034;-70
2021/07/22 12:55:59;;;;;;;9.25;6.65;;;26.10;67.20;;;;;;5024455;28;20095;-70
2021/07/22 12:58:28;;;;;;;8.40;6.50;;;26.00;67.60;;;;;;5031001;28;20040;-71
2021/07/22 13:01:06;;;;;;;8.00;6.22;;;26.00;67.10;;;;;;5027150;28;20034;-70
2021/07/22 13:03:36;;;;;;;8.82;6.65;;;26.00;66.90;;;;;;5029995;28;20029;-71
2021/07/22 13:06:02;;;;;;;8.82;7.15;;;25.90;66.70;;;;;;5025804;28;20026;-75
2021/07/22 13:08:29;;;;;;;8.48;6.47;;;25.80;66.70;;;;;;5027799;28;20117;-71
2021/07/22 13:10:55;;;;;;;8.80;6.18;;;25.70;66.60;;;;;;5028507;28;20096;-69
2021/07/22 13:13:20;;;;;;;8.65;6.47;;;25.70;66.90;;;;;;5023518;28;20470;-72
2021/07/22 13:15:46;;;;;;;11.00;7.07;;;25.60;67.20;;;;;;5023420;28;20037;-68
2021/07/22 13:18:12;;;;;;;10.60;7.82;;;25.50;67.30;;;;;;5027146;28;20025;-68
2021/07/22 13:20:37;;;;;;;11.00;6.22;;;25.50;67.10;;;;;;5027062;28;20056;-68
2021/07/22 13:23:03;;;;;;;9.70;6.68;;;25.40;66.80;;;;;;5023737;28;20025;-68
2021/07/22 13:25:29;;;;;;;10.38;7.72;;;25.40;67.00;;;;;;5027485;28;20029;-68
2021/07/22 13:27:54;;;;;;;8.88;6.78;;;25.40;67.30;;;;;;5025510;28;20026;-68
2021/07/22 13:30:21;;;;;;;9.23;6.47;;;25.30;67.50;;;;;;5026532;28;20079;-68
2021/07/22 13:32:47;;;;;;;11.55;6.72;;;25.30;68.00;;;;;;5012734;28;20038;-68
2021/07/22 13:35:13;;;;;;;9.00;6.88;;;25.20;68.40;;;;;;5017227;28;20493;-68
2021/07/22 13:37:57;;;;;;;11.75;6.80;;;25.30;69.00;;;;;;5016391;28;20044;-68
2021/07/22 13:40:23;;;;;;;10.75;7.07;;;25.20;69.50;;;;;;5032675;28;20026;-68
2021/07/22 13:42:48;;;;;;;9.93;5.72;;;25.20;69.50;;;;;;5032360;28;20029;-68
2021/07/22 13:45:14;;;;;;;9.02;7.03;;;25.30;70.20;;;;;;5018071;28;20113;-68
2021/07/22 13:47:59;;;;;;;11.07;7.40;;;25.30;69.80;;;;;;5021069;28;20139;-68
2021/07/22 13:50:43;;;;;;;8.88;6.72;;;25.40;70.10;;;;;;5028367;28;20048;-68
2021/07/22 13:53:32;;;;;;;9.75;7.10;;;25.60;70.40;;;;;;5029809;28;20547;-68
2021/07/22 13:56:16;;;;;;;10.70;6.55;;;25.70;70.90;;;;;;5021725;28;20044;-68
2021/07/22 13:59:00;;;;;;;12.27;9.57;;;25.80;69.90;;;;;;5029794;28;20559;-68
2021/07/22 14:01:44;;;;;;;10.07;8.23;;;26.00;70.20;;;;;;5031962;28;20045;-68
2021/07/22 14:04:28;;;;;;;10.73;7.20;;;26.20;70.50;;;;;;5044008;28;20440;-68
2021/07/22 14:07:12;;;;;;;12.48;6.60;;;26.50;67.60;;;;;;5025411;28;20048;-68
2021/07/22 14:09:56;;;;;;;8.85;7.03;;;26.60;67.70;;;;;;5029085;28;20040;-68